Meteo Giornale » Osservazioni meteo Algeria » Chlef
ore: 19:00 - Osservazioni Meteo Chlef
Lat. 36° 13' N Lon. 1° 20' E Alt. 143 metri s.l.m.
34 °C
Nuvoloso
Temp. 24 Ore
24 °C
37 °C
Nord/Nord-Est
11.1 Km/h
Dew point 20 °C
Umidità 43 %
Visibilità 10 Km
Il sole sorge alle ore 06:25
Il sole tramonta alle ore 19:24
| Data e Ora | Cielo e Fenomeni | T °C | DP °C | Um. % | Pres. hPa | Vis. km | Vento km/h | |
|---|---|---|---|---|---|---|---|---|
| Oggi h: 19:00 | Nuvoloso | 34 | 20 | 43 | 1015 | 10 | N/NE 11.1 | |
| Oggi h: 18:00 | Poco Nuvoloso | 35 | 21 | 44 | 1014 | 10 | N/NO 11.1 | |
| Oggi h: 17:00 | Sereno | 37 | 20 | 37 | 1015 | 10 | N/NO 13 | |
| Oggi h: 16:00 | Sereno | 37 | 19 | 35 | 1015 | 10 | N/NO 13 | |
| Oggi h: 15:00 | Sereno | 37 | 20 | 37 | 1016 | 10 | NO 13 | |
| Oggi h: 14:00 | Sereno | 36 | 21 | 41 | 1017 | 10 | O/NO 7.4 | |
| Oggi h: 13:00 | Sereno | 36 | 20 | 39 | 1017 | 9 | SO 11.1 | |
| Oggi h: 12:00 | Sereno | 33 | 21 | 49 | 1018 | 8 | S/SO 9.3 | |
| Oggi h: 11:00 | Sereno | 32 | 21 | 52 | 1018 | 7 | O/SO 7.4 | |
| Oggi h: 10:00 | Sereno | 30 | 21 | 58 | 1018 | 7 | SO 7.4 | |
| Oggi h: 09:00 | Sereno | 28 | 23 | 74 | 1018 | 7 | N 3.7 | |
| Oggi h: 08:00 | Sereno | 26 | 23 | 83 | 1018 | 8 | N 0 | |
| Oggi h: 07:00 | Sereno | 24 | 23 | 94 | 1018 | 8 | N 0 | |
| Oggi h: 06:00 | Sereno | 24 | 23 | 94 | 1017 | 10 | N 5.5 | |
| Oggi h: 05:00 | Sereno | 25 | 22 | 83 | 1017 | 10 | O/SO 9.3 | |
| Oggi h: 04:00 | Sereno | 26 | 22 | 78 | 1017 | 10 | O 14.8 | |
| Oggi h: 03:00 | Sereno | 26 | 21 | 73 | 1017 | 10 | O/SO 11.1 | |
| Oggi h: 02:00 | Sereno | 27 | 21 | 69 | 1017 | 10 | O 9.3 | |
| Oggi h: 01:00 | Sereno | 29 | 19 | 54 | 1017 | 10 | O 7.4 | |
| Oggi h: 00:00 | Sereno | 29 | 21 | 62 | 1017 | 10 | N/NO 11.1 | |
| Ieri h: 23:00 | Sereno | 29 | 21 | 62 | 1017 | 10 | N 0 | |
| Ieri h: 22:00 | Sereno | 30 | 20 | 55 | 1016 | 10 | NE 7.4 | |
| Ieri h: 21:00 | Sereno | 30 | 20 | 55 | 1016 | 10 | S/SE 7.4 | |
| Ieri h: 20:00 | Sereno | 32 | 19 | 46 | 1015 | 10 | N 11.1 | |



